ADDS METAR Data INFO
IDs: Format: Raw Decoded Include TAF

Data at: 2052 UTC 24 Jun 2018

KRPH 242035Z AUTO 15010G24KT 10SM CLR 38/18 A2971 RMK AO2 T03820182
KRPH 242015Z AUTO 16015G21KT 10SM CLR 38/18 A2972 RMK AO2 T03800184
KRPH 241955Z AUTO 15012G19KT 120V200 10SM CLR 38/19 A2972 RMK AO2 T03780185
KRPH 241935Z AUTO 16008G22KT 10SM CLR 38/19 A2972 RMK AO2 T03770189
KRPH 241915Z AUTO 17010G24KT 10SM CLR 37/19 A2972 RMK AO2 T03650185
KRPH 241855Z AUTO 15010G23KT 10SM CLR 36/19 A2974 RMK AO2 T03610189
KRPH 241835Z AUTO 14012G22KT 10SM CLR 36/19 A2975 RMK AO2 T03550194
KRPH 241815Z AUTO 15013G23KT 110V180 10SM CLR 35/20 A2976 RMK AO2 T03530195
KRPH 241755Z AUTO 15012G20KT 10SM CLR 35/20 A2977 RMK AO2 T03450197 10346 20267
KRPH 241735Z AUTO 15008G21KT 10SM CLR 34/20 A2978 RMK AO2 T03390202
KRPH 241715Z AUTO 16009G20KT 10SM CLR 33/20 A2979 RMK AO2 T03330201
KRPH 241655Z AUTO 17009G21KT 10SM CLR 33/20 A2980 RMK AO2 T03290201
KRPH 241635Z AUTO 14007G18KT 10SM CLR 32/21 A2981 RMK AO2 T03210205
KRPH 241615Z AUTO 15011G15KT 110V180 10SM CLR 32/21 A2981 RMK AO2 T03160208
KRPH 241555Z AUTO 14010G14KT 10SM SCT039 31/21 A2981 RMK AO2 T03110211
KRPH 241535Z AUTO 15009G14KT 10SM SCT035 30/22 A2981 RMK AO2 T03000217
KRPH 241515Z AUTO 13011G15KT 10SM SCT033 30/22 A2980 RMK AO2 T03020221
KRPH 241455Z AUTO 17006KT 10SM SCT033 29/22 A2981 RMK AO2 T02940223
KRPH 241435Z AUTO 14007G14KT 10SM SCT031 BKN038 29/23 A2980 RMK AO2 T02910225
KRPH 241415Z AUTO 13011G14KT 10SM SCT029 BKN038 BKN095 29/23 A2980 RMK AO2 T02880226
KRPH 241355Z AUTO 13007G16KT 10SM SCT031 SCT037 SCT095 28/23 A2981 RMK AO2 T02830227
KRPH 241335Z AUTO 13008KT 10SM BKN030 BKN038 28/23 A2981 RMK AO2 T02800228
KRPH 241315Z AUTO 14007KT 10SM BKN028 BKN034 28/23 A2980 RMK AO2 T02750229
KRPH 241255Z AUTO 12005KT 10SM BKN028 27/23 A2979 RMK AO2 T02670229
KRPH 241235Z AUTO 11003KT 10SM BKN028 BKN033 27/23 A2978 RMK AO2 T02700228
KRPH 241215Z AUTO 15006KT 10SM BKN026 27/23 A2977 RMK AO2 T02700229
KRPH 241155Z AUTO 16007KT 10SM SCT026 27/23 A2975 RMK AO2 T02680228 10291 20268
KRPH 241135Z AUTO 17009G16KT 140V200 10SM CLR 27/23 A2972 RMK AO2 T02700230
KRPH 241115Z AUTO 18009G16KT 10SM CLR 27/23 A2972 RMK AO2 T02710227
KRPH 241055Z AUTO 18007KT 10SM CLR 27/22 A2971 RMK AO2 T02740215
KRPH 241035Z AUTO 18009G19KT 10SM CLR 28/21 A2970 RMK AO2 T02760208
KRPH 241015Z AUTO 19010G17KT 10SM CLR 28/21 A2969 RMK AO2 T02760206
KRPH 240955Z AUTO 20011G23KT 10SM CLR 28/20 A2968 RMK AO2 T02840200
KRPH 240935Z AUTO 19011G18KT 10SM CLR 28/15 A2968 RMK AO2 T02820147
KRPH 240915Z AUTO 17007KT 10SM CLR 28/18 A2966 RMK AO2 T02750178
KRPH 240855Z AUTO 16004KT 10SM CLR 28/19 A2963 RMK AO2 T02790185
KRPH 240835Z AUTO 10004KT 10SM CLR 28/19 A2962 RMK AO2 T02780193
KRPH 240815Z AUTO 12004KT 10SM CLR 28/19 A2962 RMK AO2 T02750193
KRPH 240755Z AUTO 12004KT 10SM CLR 28/20 A2963 RMK AO2 T02770201
KRPH 240735Z AUTO 12004KT 10SM CLR 28/21 A2964 RMK AO2 T02800209
KRPH 240715Z AUTO 11006KT 10SM CLR 28/21 A2965 RMK AO2 T02810214
KRPH 240655Z AUTO 11006G15KT 10SM CLR 29/22 A2965 RMK AO2 T02850215
KRPH 240635Z AUTO 12009G14KT 10SM CLR 29/22 A2965 RMK AO2 T02870215
KRPH 240615Z AUTO 00000KT 10SM CLR 29/22 A2968 RMK AO2 T02910216
KRPH 240555Z AUTO 13016G25KT 10SM CLR 29/22 A2964 RMK AO2 P0001 60001 T02890218 10368 20266 403790230
KRPH 240535Z AUTO 13012G18KT 10SM CLR 28/22 A2966 RMK AO2 P0001 T02800224
KRPH 240515Z AUTO 10010G20KT 10SM -RA SCT006 SCT013 SCT021 27/23 A2971 RMK AO2 P0001 T02660229
KRPH 240455Z AUTO 13012G28KT 7SM RA SCT006 BKN016 BKN037 27/23 A2977 RMK AO2 P0004 T02740230
KRPH 240435Z AUTO 14008G16KT 10SM SCT060 SCT100 32/21 A2981 RMK AO2 T03150210
KRPH 240415Z AUTO 12007G20KT 10SM CLR 31/21 A2975 RMK AO2 T03130207
KRPH 240355Z AUTO 13013G20KT 10SM CLR 32/21 A2970 RMK AO2 T03170205
KRPH 240335Z AUTO 13011G23KT 10SM CLR 32/20 A2970 RMK AO2 T03210202
KRPH 240315Z AUTO 13014G22KT 10SM CLR 32/20 A2968 RMK AO2 T03230200
KRPH 240255Z AUTO 12011G19KT 10SM CLR 33/20 A2969 RMK AO2 T03260199
KRPH 240235Z AUTO 12012G20KT 10SM CLR 33/20 A2965 RMK AO2 T03290196
KRPH 240215Z AUTO 12011G19KT 10SM CLR 33/20 A2964 RMK AO2 T03310195
KRPH 240155Z AUTO 12012G17KT 10SM CLR 33/20 A2966 RMK AO2 T03330195
KRPH 240135Z AUTO 12010G16KT 10SM CLR 34/19 A2965 RMK AO2 T03380192
KRPH 240115Z AUTO 12009G16KT 10SM CLR 35/19 A2965 RMK AO2 T03460189
KRPH 240055Z AUTO 11007G16KT 10SM CLR 35/19 A2965 RMK AO2 T03480188
KRPH 240035Z AUTO 13008G14KT 10SM CLR 35/19 A2966 RMK AO2 T03530187
KRPH 240015Z AUTO 12010G17KT 10SM CLR 36/19 A2966 RMK AO2 T03610189
KRPH 232355Z AUTO 12011G17KT 10SM CLR 37/19 A2966 RMK AO2 T03690191 10379 20329
KRPH 232335Z AUTO 11011KT 10SM CLR 37/19 A2966 RMK AO2 T03680190
KRPH 232315Z AUTO 13011G16KT 10SM CLR 37/19 A2967 RMK AO2 T03720190
KRPH 232255Z AUTO 14007G16KT 10SM CLR 37/19 A2968 RMK AO2 T03670188
KRPH 232235Z AUTO 13008KT 10SM CLR 36/19 A2968 RMK AO2 T03640187
KRPH 232215Z AUTO 12008KT 10SM CLR 37/19 A2969 RMK AO2 T03660187
KRPH 232155Z AUTO 14006G15KT 10SM CLR 37/19 A2969 RMK AO2 T03650186
KRPH 232135Z AUTO 13008G15KT 10SM CLR 37/19 A2969 RMK AO2 T03740189
KRPH 232115Z AUTO 12009G17KT 10SM CLR 37/19 A2970 RMK AO2 T03700190
KRPH 232055Z AUTO 16008G16KT 10SM CLR 36/19 A2971 RMK AO2 T03580190
KRPH 232035Z AUTO 12013G17KT 10SM SCT065 37/20 A2971 RMK AO2 T03680196
KRPH 232015Z AUTO 12010G17KT 110V190 10SM CLR 36/20 A2972 RMK AO2 T03630200
KRPH 231955Z AUTO 14009G15KT 10SM CLR 35/21 A2973 RMK AO2 T03500205
KRPH 231930Z AUTO 13010G19KT 100V160 10SM CLR 35/21 A2973 RMK AO2 T03530212
KRPH 231915Z AUTO 12012G19KT 090V150 10SM CLR 35/22 A2974 RMK AO2 T03490219
KRPH 231855Z AUTO 13012G20KT 10SM CLR 34/22 A2975 RMK AO2 T03400224
KRPH 231835Z AUTO 14013G19KT 10SM CLR 34/22 A2976 RMK AO2 T03360223
KRPH 231815Z AUTO 14010G18KT 100V180 10SM SCT041 33/22 A2977 RMK AO2 T03340221
KRPH 231755Z AUTO 12010G16KT 10SM CLR 33/22 A2979 RMK AO2 T03270223 10336 20231
KRPH 231735Z AUTO 12013G18KT 10SM CLR 33/22 A2979 RMK AO2 T03290223
KRPH 231715Z AUTO 14008G19KT 120V180 10SM CLR 33/22 A2980 RMK AO2 T03280220
KRPH 231655Z AUTO 14011G17KT 10SM SCT035 SCT042 SCT050 31/22 A2981 RMK AO2 T03120222
KRPH 231635Z AUTO 12010G17KT 10SM SCT035 SCT050 31/23 A2982 RMK AO2 T03100225
KRPH 231615Z AUTO 11011G16KT 10SM CLR 30/23 A2982 RMK AO2 T03040227
KRPH 231555Z AUTO 12011G17KT 10SM CLR 31/23 A2983 RMK AO2 T03050228
KRPH 231535Z AUTO 12011G16KT 10SM CLR 30/23 A2983 RMK AO2 T02990228
KRPH 231515Z AUTO 10010G17KT 10SM SCT050 29/23 A2983 RMK AO2 T02900225
KRPH 231455Z AUTO 12011G17KT 10SM CLR 28/22 A2983 RMK AO2 T02840221
KRPH 231435Z AUTO 11009KT 10SM CLR 27/22 A2982 RMK AO2 T02740216
KRPH 231415Z AUTO 11008G15KT 10SM CLR 27/21 A2983 RMK AO2 T02700209
KRPH 231355Z AUTO 10007KT 10SM SCT047 26/20 A2984 RMK AO2 T02550200
KRPH 231335Z AUTO 07009G16KT 10SM SCT047 25/19 A2984 RMK AO2 T02450194
KRPH 231315Z AUTO 08010G19KT 10SM SCT039 SCT047 24/19 A2983 RMK AO2 T02410190
KRPH 231255Z AUTO 07011G15KT 10SM BKN041 24/19 A2983 RMK AO2 T02370186
KRPH 231235Z AUTO 07011G16KT 10SM SCT041 23/18 A2983 RMK AO2 T02340183
KRPH 231215Z AUTO 06008KT 10SM SCT043 23/18 A2983 RMK AO2 T02310180
KRPH 231155Z AUTO 07009G15KT 10SM BKN043 23/18 A2982 RMK AO2 T02320180 10310 20230
KRPH 231135Z AUTO 06009KT 10SM SCT043 23/18 A2981 RMK AO2 T02300178
KRPH 231115Z AUTO 07006KT 10SM CLR 23/18 A2980 RMK AO2 T02300180
KRPH 231055Z AUTO 07008KT 10SM CLR 23/18 A2979 RMK AO2 T02330180
KRPH 231035Z AUTO 08007G14KT 10SM CLR 24/18 A2979 RMK AO2 T02380183
KRPH 231015Z AUTO 07010G14KT 10SM CLR 25/19 A2978 RMK AO2 T02450189
KRPH 230955Z AUTO 08008G19KT 10SM CLR 26/20 A2976 RMK AO2 T02560197
KRPH 230935Z AUTO 09009KT 10SM CLR 26/21 A2975 RMK AO2 T02640205
KRPH 230915Z AUTO 06007KT 10SM CLR 27/21 A2978 RMK AO2 T02700205
KRPH 230855Z AUTO 06004KT 10SM CLR 28/20 A2976 RMK AO2 T02750201